createdAt,value
2023-03-06T00:01:01.134Z,99329.41
2023-03-06T00:03:30.717Z,99302.66
2023-03-06T00:06:00.404Z,99324.88
2023-03-06T00:08:30.624Z,99307.81
2023-03-06T00:11:00.917Z,99325.19
2023-03-06T00:13:32.255Z,99324.28
2023-03-06T00:16:03.292Z,99318.50
2023-03-06T00:18:32.814Z,99323.28
2023-03-06T00:21:02.196Z,99319.34
2023-03-06T00:23:31.366Z,99328.31
2023-03-06T00:26:00.986Z,99326.00
2023-03-06T00:28:32.732Z,99328.28
2023-03-06T00:31:04.428Z,99331.78
2023-03-06T00:33:34.201Z,99337.56
2023-03-06T00:36:05.956Z,99334.00
2023-03-06T00:38:37.316Z,99334.59
2023-03-06T00:41:11.054Z,99337.69
2023-03-06T00:43:39.976Z,99336.00
2023-03-06T00:46:12.114Z,99343.81
2023-03-06T00:48:41.784Z,99349.09
2023-03-06T00:51:13.868Z,99335.69
2023-03-06T00:53:43.270Z,99334.25
2023-03-06T00:56:12.961Z,99349.78
2023-03-06T00:58:42.679Z,99362.75
2023-03-06T01:01:13.017Z,99349.72
2023-03-06T01:03:42.212Z,99358.59
2023-03-06T01:06:11.507Z,99331.41
2023-03-06T01:08:40.739Z,99352.63
2023-03-06T01:11:10.009Z,99315.34
2023-03-06T01:13:39.381Z,99354.66
2023-03-06T01:16:10.336Z,99343.22
2023-03-06T01:18:41.975Z,99345.53
2023-03-06T01:21:11.399Z,99340.66
2023-03-06T01:23:41.117Z,99275.81
2023-03-06T01:26:10.380Z,99336.63
2023-03-06T01:28:40.845Z,99335.50
2023-03-06T01:31:11.775Z,99321.72
2023-03-06T01:33:42.903Z,99331.34
2023-03-06T01:36:13.931Z,99311.34
2023-03-06T01:38:43.592Z,99294.91
2023-03-06T01:41:15.895Z,99289.69
2023-03-06T01:43:47.499Z,99325.13
2023-03-06T01:46:38.870Z,99245.56
2023-03-06T01:49:14.259Z,99310.94
2023-03-06T01:51:50.442Z,99311.50
2023-03-06T01:54:24.177Z,99306.22
2023-03-06T01:56:57.875Z,99274.66
2023-03-06T01:59:29.257Z,99277.88
2023-03-06T02:02:01.967Z,99315.41
2023-03-06T02:04:33.253Z,99315.13
2023-03-06T02:07:04.880Z,99278.75
2023-03-06T02:09:38.066Z,99310.94
2023-03-06T02:12:11.269Z,99310.84
2023-03-06T02:14:42.536Z,99287.78
2023-03-06T02:17:13.472Z,99309.78
2023-03-06T02:19:52.061Z,99298.44
2023-03-06T02:22:22.080Z,99272.78
2023-03-06T02:24:57.907Z,99300.91
2023-03-06T02:27:29.064Z,99291.34
2023-03-06T02:29:58.947Z,99284.59
2023-03-06T02:32:28.195Z,99287.00
2023-03-06T02:34:59.215Z,99288.50
2023-03-06T02:37:30.719Z,99228.59
2023-03-06T02:40:12.393Z,99290.81
2023-03-06T02:42:48.566Z,99298.06
2023-03-06T02:45:23.395Z,99301.38
2023-03-06T02:47:53.876Z,99262.13
2023-03-06T02:50:23.360Z,99265.66
2023-03-06T02:52:52.669Z,99254.53
2023-03-06T02:55:22.451Z,99250.41
2023-03-06T02:57:53.231Z,99294.44
2023-03-06T03:00:22.877Z,99274.63
2023-03-06T03:02:52.796Z,99252.53
2023-03-06T03:05:22.958Z,99292.50
2023-03-06T03:07:59.864Z,99299.13
2023-03-06T03:10:32.230Z,99265.31
2023-03-06T03:13:03.613Z,99282.28
2023-03-06T03:15:33.704Z,99271.53
2023-03-06T03:18:03.084Z,99290.22
2023-03-06T03:20:32.533Z,99280.63
2023-03-06T03:23:02.010Z,99276.03
2023-03-06T03:25:31.441Z,99268.09
2023-03-06T03:28:02.292Z,99299.78
2023-03-06T03:30:32.108Z,99271.28
2023-03-06T03:33:02.125Z,99278.00
2023-03-06T03:35:31.858Z,99260.53
2023-03-06T03:38:02.271Z,99301.00
2023-03-06T03:40:32.376Z,99295.75
2023-03-06T03:43:04.025Z,99300.16
2023-03-06T03:45:33.745Z,99293.34
2023-03-06T03:48:03.489Z,99295.75
2023-03-06T03:50:34.896Z,99307.06
2023-03-06T03:53:04.710Z,99308.69
2023-03-06T03:55:35.288Z,99292.09
2023-03-06T03:58:09.077Z,99285.59
2023-03-06T04:00:38.492Z,99298.28
2023-03-06T04:03:14.143Z,99259.25
2023-03-06T04:05:46.461Z,99288.97
2023-03-06T04:08:18.562Z,99303.78
2023-03-06T04:10:49.462Z,99301.00
2023-03-06T04:13:22.160Z,99305.00
2023-03-06T04:15:54.892Z,99313.28
2023-03-06T04:18:25.624Z,99281.75
2023-03-06T04:20:58.800Z,99315.41
2023-03-06T04:23:28.560Z,99317.19
2023-03-06T04:25:57.757Z,99312.72
2023-03-06T04:28:28.951Z,99302.28
2023-03-06T04:30:59.480Z,99314.56
2023-03-06T04:33:29.052Z,99313.72
2023-03-06T04:35:58.809Z,99313.56
2023-03-06T04:38:32.047Z,99234.50
2023-03-06T04:41:03.191Z,99324.63
2023-03-06T04:43:34.150Z,99299.44
2023-03-06T04:46:03.526Z,99302.41
2023-03-06T04:48:33.355Z,99329.00
2023-03-06T04:51:03.468Z,99297.28
2023-03-06T04:53:33.400Z,99316.81
2023-03-06T04:56:03.185Z,99289.81
2023-03-06T04:58:33.809Z,99336.06
2023-03-06T05:01:03.451Z,99292.94
2023-03-06T05:03:32.915Z,99326.44
2023-03-06T05:06:03.110Z,99325.75
2023-03-06T05:08:32.929Z,99318.78
2023-03-06T05:11:03.320Z,99347.50
2023-03-06T05:13:34.080Z,99346.19
2023-03-06T05:16:04.475Z,99354.22
2023-03-06T05:18:34.602Z,99344.59
2023-03-06T05:21:06.925Z,99358.16
2023-03-06T05:23:38.935Z,99307.38
2023-03-06T05:26:09.912Z,99365.50
2023-03-06T05:28:45.861Z,99369.63
2023-03-06T05:31:15.157Z,99336.38
2023-03-06T05:33:44.718Z,99313.78
2023-03-06T05:36:14.175Z,99369.44
2023-03-06T05:38:43.452Z,99355.41
2023-03-06T05:41:16.190Z,99338.72
2023-03-06T05:43:47.109Z,99371.09
2023-03-06T05:46:16.896Z,99378.88
2023-03-06T05:48:46.936Z,99345.53
2023-03-06T05:51:17.258Z,99375.56
2023-03-06T05:53:50.445Z,99362.34
2023-03-06T05:56:22.027Z,99365.25
2023-03-06T05:58:53.428Z,99376.41
2023-03-06T06:01:25.667Z,99337.31
2023-03-06T06:03:56.100Z,99372.50
2023-03-06T06:06:25.781Z,99380.19
2023-03-06T06:09:27.081Z,99356.31
2023-03-06T06:11:59.803Z,99386.75
2023-03-06T06:14:33.692Z,99397.91
2023-03-06T06:17:03.480Z,99401.56
2023-03-06T06:19:34.100Z,99400.88
2023-03-06T06:22:04.091Z,99412.66
2023-03-06T06:24:33.873Z,99135.91
2023-03-06T06:27:04.099Z,99363.91
2023-03-06T06:29:35.122Z,99385.75
2023-03-06T06:32:05.164Z,99377.03
2023-03-06T06:34:34.886Z,99411.53
2023-03-06T06:37:04.382Z,99410.38
2023-03-06T06:39:34.556Z,99385.19
2023-03-06T06:42:26.357Z,99386.91
2023-03-06T06:44:55.069Z,99427.09
2023-03-06T06:47:25.599Z,99395.25
2023-03-06T06:49:57.477Z,99428.78
2023-03-06T06:52:28.553Z,99423.38
2023-03-06T06:54:58.369Z,99446.63
2023-03-06T06:57:27.743Z,99419.22
2023-03-06T07:00:01.581Z,99463.44
2023-03-06T07:02:32.326Z,99434.28
2023-03-06T07:05:05.314Z,99436.19
2023-03-06T07:07:37.012Z,99459.25
2023-03-06T07:10:08.368Z,99463.72
2023-03-06T07:12:41.475Z,99444.44
2023-03-06T07:15:13.851Z,99466.44
2023-03-06T07:17:43.337Z,99464.69
2023-03-06T07:20:13.444Z,99471.25
2023-03-06T07:22:50.697Z,99471.03
2023-03-06T07:25:22.943Z,99476.16
2023-03-06T07:27:54.494Z,99463.03
2023-03-06T07:30:27.747Z,99456.97
2023-03-06T07:32:58.305Z,99481.63
2023-03-06T07:35:28.496Z,99474.81
2023-03-06T07:38:01.028Z,99467.22
2023-03-06T07:40:31.339Z,99500.94
2023-03-06T07:43:16.785Z,99490.94
2023-03-06T07:46:01.994Z,99450.38
2023-03-06T07:48:33.454Z,99496.94
2023-03-06T07:51:06.005Z,99499.13
2023-03-06T07:53:39.056Z,99496.50
2023-03-06T07:56:11.253Z,99499.97
2023-03-06T07:58:43.585Z,99497.78
2023-03-06T08:01:19.817Z,99459.53
2023-03-06T08:03:50.633Z,99457.88
2023-03-06T08:06:21.555Z,99495.53
2023-03-06T08:08:52.965Z,99498.56
2023-03-06T08:11:24.108Z,99501.84
2023-03-06T08:13:54.843Z,99503.28
2023-03-06T08:16:28.760Z,99506.59
2023-03-06T08:18:58.363Z,99525.38
2023-03-06T08:21:30.355Z,99528.25
2023-03-06T08:23:59.889Z,99522.16
2023-03-06T08:26:33.271Z,99486.28
2023-03-06T08:29:03.921Z,99474.88
2023-03-06T08:31:37.340Z,99508.84
2023-03-06T08:34:08.461Z,99500.25
2023-03-06T08:36:38.065Z,99514.47
2023-03-06T08:39:08.530Z,99533.19
2023-03-06T08:41:38.864Z,99510.38
2023-03-06T08:44:08.498Z,99548.41
2023-03-06T08:46:40.131Z,99546.03
2023-03-06T08:49:10.592Z,99532.31
2023-03-06T08:51:40.402Z,99543.81
2023-03-06T08:54:12.178Z,99489.97
2023-03-06T08:56:41.686Z,99544.41
2023-03-06T08:59:13.564Z,99556.03
2023-03-06T09:01:45.359Z,99555.03
2023-03-06T09:04:14.793Z,99535.81
2023-03-06T09:06:45.341Z,99549.22
2023-03-06T09:09:15.054Z,99542.44
2023-03-06T09:11:44.736Z,99551.56
2023-03-06T09:14:16.829Z,99443.25
2023-03-06T09:16:47.747Z,99505.31
2023-03-06T09:19:17.402Z,99555.56
2023-03-06T09:21:47.087Z,99557.59
2023-03-06T09:24:17.132Z,99560.41
2023-03-06T09:26:48.801Z,99579.44
2023-03-06T09:29:19.387Z,99575.16
2023-03-06T09:31:51.600Z,99580.19
2023-03-06T09:34:22.474Z,99548.97
2023-03-06T09:36:57.068Z,99579.59
2023-03-06T09:39:27.654Z,99572.16
2023-03-06T09:41:59.301Z,99565.16
2023-03-06T09:44:32.498Z,99568.56
2023-03-06T09:47:27.660Z,99559.00
2023-03-06T09:50:11.754Z,99569.63
2023-03-06T09:52:47.728Z,99579.44
2023-03-06T09:55:23.380Z,99572.63
2023-03-06T09:57:57.180Z,99556.91
2023-03-06T10:00:29.883Z,99571.13
2023-03-06T10:03:09.403Z,99554.28
2023-03-06T10:05:45.948Z,99558.22
2023-03-06T10:08:24.563Z,99465.31
2023-03-06T10:11:03.840Z,99568.81
2023-03-06T10:13:40.161Z,99510.19
2023-03-06T10:16:23.191Z,99552.78
2023-03-06T10:18:55.046Z,99533.94
2023-03-06T10:21:38.903Z,99568.38
2023-03-06T10:24:23.081Z,99572.56
2023-03-06T10:27:00.653Z,99568.38
2023-03-06T10:29:56.379Z,99502.44
2023-03-06T10:32:48.211Z,99539.00
2023-03-06T10:35:30.713Z,99566.88
2023-03-06T10:38:03.680Z,99568.84
2023-03-06T10:40:44.476Z,99525.47
2023-03-06T10:43:14.571Z,99543.34
2023-03-06T10:45:51.599Z,99566.78
2023-03-06T10:48:25.475Z,99563.00
2023-03-06T10:51:18.505Z,99472.22
2023-03-06T10:53:54.907Z,99527.75
2023-03-06T10:56:35.511Z,99543.25
2023-03-06T10:59:10.221Z,99531.84
2023-03-06T11:01:40.785Z,99502.53
2023-03-06T11:04:18.688Z,99531.25
2023-03-06T11:06:49.854Z,99533.41
2023-03-06T11:09:24.348Z,99519.97
2023-03-06T11:11:54.257Z,99530.56
2023-03-06T11:14:25.920Z,99490.66
2023-03-06T11:16:57.015Z,99553.72
2023-03-06T11:19:29.737Z,99545.13
2023-03-06T11:22:06.129Z,99555.91
2023-03-06T11:24:40.784Z,99489.44
2023-03-06T11:27:24.953Z,99500.94
2023-03-06T11:29:56.378Z,99518.34
2023-03-06T11:32:30.967Z,99526.34
2023-03-06T11:35:05.844Z,99543.03
2023-03-06T11:37:52.212Z,99511.09
2023-03-06T11:40:27.134Z,99533.38
2023-03-06T11:43:04.308Z,99473.00
2023-03-06T11:45:39.412Z,99538.47
2023-03-06T11:48:23.340Z,99539.53
2023-03-06T11:50:54.613Z,99528.38
2023-03-06T11:53:31.709Z,99541.09
2023-03-06T11:56:11.167Z,99494.50
2023-03-06T11:59:03.240Z,99534.91
2023-03-06T12:01:38.445Z,99533.06
2023-03-06T12:04:47.114Z,99566.44
2023-03-06T12:07:30.894Z,99564.28
2023-03-06T12:10:14.689Z,99543.19
2023-03-06T12:13:05.677Z,99556.44
2023-03-06T12:15:55.708Z,99490.97
2023-03-06T12:18:41.771Z,99516.34
2023-03-06T12:21:19.494Z,99546.97
2023-03-06T12:24:05.441Z,99553.78
2023-03-06T12:26:56.875Z,99555.00
2023-03-06T12:29:40.882Z,99506.25
2023-03-06T12:32:17.072Z,99503.69
2023-03-06T12:35:04.780Z,99553.59
2023-03-06T12:37:47.750Z,99559.28
2023-03-06T12:40:41.416Z,99565.03
2023-03-06T12:43:29.746Z,99561.84
2023-03-06T12:46:04.930Z,99570.97
2023-03-06T12:48:37.851Z,99487.81
2023-03-06T12:51:09.350Z,99532.66
2023-03-06T12:53:41.054Z,99515.53
2023-03-06T12:56:14.666Z,99555.28
2023-03-06T12:58:53.634Z,99550.06
2023-03-06T13:01:56.131Z,99573.31
2023-03-06T13:04:58.567Z,99561.91
2023-03-06T13:07:42.029Z,99553.75
2023-03-06T13:10:23.379Z,99518.75
2023-03-06T13:12:56.820Z,99450.00
2023-03-06T13:15:44.314Z,99493.41
2023-03-06T13:19:05.857Z,99557.78
2023-03-06T13:22:02.657Z,99495.63
2023-03-06T13:24:34.570Z,99537.53
2023-03-06T13:27:09.531Z,99567.25
2023-03-06T13:30:20.023Z,99549.88
2023-03-06T13:32:52.895Z,99540.22
2023-03-06T13:35:52.602Z,99563.31
2023-03-06T13:38:36.967Z,99560.69
2023-03-06T13:41:34.906Z,99564.44
2023-03-06T13:44:30.929Z,99544.94
2023-03-06T13:47:02.235Z,99519.78
2023-03-06T13:49:34.538Z,99557.53
2023-03-06T13:52:11.034Z,99556.59
2023-03-06T13:54:55.468Z,99528.78
2023-03-06T13:57:49.614Z,99527.19
2023-03-06T14:00:48.394Z,99537.63
2023-03-06T14:03:52.606Z,99527.69
2023-03-06T14:07:01.458Z,99564.84
2023-03-06T14:09:36.822Z,99523.88
2023-03-06T14:12:14.574Z,99545.28
2023-03-06T14:14:48.327Z,99462.38
2023-03-06T14:17:23.223Z,99565.91
2023-03-06T14:19:53.573Z,99542.63
2023-03-06T14:22:26.444Z,99566.75
2023-03-06T14:25:11.591Z,99571.00
2023-03-06T14:27:49.266Z,99556.59
2023-03-06T14:30:24.228Z,99563.84
2023-03-06T14:32:56.657Z,99576.09
2023-03-06T14:35:29.083Z,99544.06
2023-03-06T14:38:01.046Z,99574.72
2023-03-06T14:40:35.240Z,99558.53
2023-03-06T14:43:19.398Z,99538.63
2023-03-06T14:45:57.236Z,99536.44
2023-03-06T14:48:28.639Z,99567.06
2023-03-06T14:50:58.854Z,99583.00
2023-03-06T14:53:31.684Z,99540.38
2023-03-06T14:56:06.411Z,99556.13
2023-03-06T14:58:39.956Z,99560.63
2023-03-06T15:01:13.385Z,99580.38
2023-03-06T15:03:45.796Z,99569.25
2023-03-06T15:06:21.927Z,99584.75
2023-03-06T15:09:00.170Z,99503.97
2023-03-06T15:11:57.066Z,99546.66
2023-03-06T15:14:33.419Z,99592.38
2023-03-06T15:17:26.673Z,99537.00
2023-03-06T15:19:57.611Z,99578.34
2023-03-06T15:22:33.627Z,99563.41
2023-03-06T15:25:59.981Z,99582.78
2023-03-06T15:28:37.221Z,99558.34
2023-03-06T15:31:19.947Z,99595.72
2023-03-06T15:34:25.290Z,99588.09
2023-03-06T15:36:57.136Z,99586.72
2023-03-06T15:39:38.333Z,99608.91
2023-03-06T15:42:29.285Z,99464.97
2023-03-06T15:45:05.669Z,99601.31
2023-03-06T15:47:34.930Z,99598.50
2023-03-06T15:50:04.544Z,99589.44
2023-03-06T15:52:34.220Z,99616.34
2023-03-06T15:55:03.614Z,99579.50
2023-03-06T15:57:39.436Z,99620.75
2023-03-06T16:00:27.060Z,99596.00
2023-03-06T16:02:58.684Z,99621.22
2023-03-06T16:05:29.928Z,99514.53
2023-03-06T16:07:59.961Z,99560.69
2023-03-06T16:10:32.211Z,99542.88
2023-03-06T16:13:06.427Z,99573.28
2023-03-06T16:15:40.158Z,99633.06
2023-03-06T16:18:13.737Z,99622.78
2023-03-06T16:20:51.249Z,99637.72
2023-03-06T16:23:22.234Z,99443.13
2023-03-06T16:25:52.524Z,99576.44
2023-03-06T16:28:22.780Z,99639.44
2023-03-06T16:30:54.822Z,99641.66
2023-03-06T16:33:24.710Z,99620.78
2023-03-06T16:35:54.215Z,99625.66
2023-03-06T16:38:23.836Z,99625.25
2023-03-06T16:40:52.900Z,99638.69
2023-03-06T16:43:22.288Z,99615.16
2023-03-06T16:45:52.026Z,99635.94
2023-03-06T16:48:24.562Z,99621.94
2023-03-06T16:50:54.946Z,99619.72
2023-03-06T16:53:24.555Z,99636.53
2023-03-06T16:55:54.229Z,99639.22
2023-03-06T16:58:26.020Z,99593.22
2023-03-06T17:00:55.912Z,99636.97
2023-03-06T17:03:31.058Z,99642.44
2023-03-06T17:06:00.840Z,99612.66
2023-03-06T17:08:30.952Z,99612.59
2023-03-06T17:11:00.791Z,99640.84
2023-03-06T17:13:30.334Z,99595.28
2023-03-06T17:16:02.212Z,99617.22
2023-03-06T17:18:34.537Z,99639.75
2023-03-06T17:21:04.621Z,99575.81
2023-03-06T17:23:34.523Z,99642.09
2023-03-06T17:26:06.116Z,99644.44
2023-03-06T17:28:36.484Z,99604.63
2023-03-06T17:31:13.610Z,99648.44
2023-03-06T17:33:45.020Z,99567.19
2023-03-06T17:36:16.596Z,99584.47
2023-03-06T17:38:46.617Z,99642.13
2023-03-06T17:41:17.380Z,99594.22
2023-03-06T17:43:47.074Z,99645.66
2023-03-06T17:46:18.516Z,99623.75
2023-03-06T17:48:49.675Z,99646.28
2023-03-06T17:51:19.561Z,99620.72
2023-03-06T17:53:52.393Z,99649.38
2023-03-06T17:56:23.776Z,99632.41
2023-03-06T17:58:54.290Z,99640.19
2023-03-06T18:01:27.489Z,99638.94
2023-03-06T18:04:02.931Z,99639.97
2023-03-06T18:06:33.661Z,99604.13
2023-03-06T18:09:03.949Z,99631.84
2023-03-06T18:11:33.585Z,99650.63
2023-03-06T18:14:05.272Z,99651.53
2023-03-06T18:16:35.135Z,99631.16
2023-03-06T18:19:05.768Z,99651.31
2023-03-06T18:21:35.142Z,99654.16
2023-03-06T18:24:05.420Z,99633.38
2023-03-06T18:26:35.931Z,99661.34
2023-03-06T18:29:07.083Z,99658.81
2023-03-06T18:31:40.125Z,99621.88
2023-03-06T18:34:13.542Z,99650.16
2023-03-06T18:36:47.296Z,99658.97
2023-03-06T18:39:17.626Z,99657.72
2023-03-06T18:41:48.343Z,99629.38
2023-03-06T18:44:19.018Z,99656.56
2023-03-06T18:46:51.304Z,99656.06
2023-03-06T18:49:25.810Z,99665.22
2023-03-06T18:51:57.054Z,99642.19
2023-03-06T18:54:29.780Z,99673.63
2023-03-06T18:57:01.032Z,99665.56
2023-03-06T18:59:31.380Z,99647.66
2023-03-06T19:02:01.126Z,99670.38
2023-03-06T19:04:32.721Z,99623.72
2023-03-06T19:07:03.259Z,99656.06
2023-03-06T19:09:34.011Z,99676.69
2023-03-06T19:12:04.518Z,99642.06
2023-03-06T19:14:36.419Z,99649.19
2023-03-06T19:17:06.311Z,99660.56
2023-03-06T19:19:37.142Z,99667.03
2023-03-06T19:22:07.465Z,99651.97
2023-03-06T19:24:37.787Z,99678.34
2023-03-06T19:27:07.665Z,99641.25
2023-03-06T19:29:38.673Z,99664.91
2023-03-06T19:32:09.228Z,99675.94
2023-03-06T19:34:40.525Z,99643.88
2023-03-06T19:37:11.049Z,99627.06
2023-03-06T19:39:40.759Z,99652.38
2023-03-06T19:42:12.810Z,99642.53
2023-03-06T19:44:43.487Z,99654.59
2023-03-06T19:47:13.292Z,99666.03
2023-03-06T19:49:44.643Z,99663.75
2023-03-06T19:52:14.974Z,99658.66
2023-03-06T19:54:47.125Z,99657.72
2023-03-06T19:57:17.544Z,99514.69
2023-03-06T19:59:51.864Z,99664.53
2023-03-06T20:02:26.631Z,99672.38
2023-03-06T20:04:58.188Z,99641.00
2023-03-06T20:07:27.789Z,99636.69
2023-03-06T20:10:00.866Z,99659.91
2023-03-06T20:12:32.165Z,99631.06
2023-03-06T20:15:02.207Z,99650.41
2023-03-06T20:17:39.796Z,99595.56
2023-03-06T20:20:12.590Z,99622.91
2023-03-06T20:22:42.936Z,99592.63
2023-03-06T20:25:28.702Z,99645.31
2023-03-06T20:27:58.926Z,99647.16
2023-03-06T20:30:37.784Z,99636.38
2023-03-06T20:33:08.456Z,99636.72
2023-03-06T20:35:43.920Z,99622.28
2023-03-06T20:38:13.696Z,99602.22
2023-03-06T20:40:44.529Z,99612.38
2023-03-06T20:43:16.957Z,99557.59
2023-03-06T20:45:57.288Z,99584.63
2023-03-06T20:48:26.838Z,99622.75
2023-03-06T20:51:06.082Z,99620.47
2023-03-06T20:53:36.472Z,99618.31
2023-03-06T20:56:06.642Z,99614.31
2023-03-06T20:58:38.725Z,99592.53
2023-03-06T21:01:08.651Z,99618.81
2023-03-06T21:03:40.722Z,99618.53
2023-03-06T21:06:11.442Z,99621.66
2023-03-06T21:08:41.265Z,99616.72
2023-03-06T21:11:10.679Z,99592.88
2023-03-06T21:13:40.630Z,99601.63
2023-03-06T21:16:22.004Z,99596.84
2023-03-06T21:18:52.300Z,99601.69
2023-03-06T21:21:25.348Z,99505.72
2023-03-06T21:23:58.637Z,99607.81
2023-03-06T21:26:30.871Z,99562.53
2023-03-06T21:29:06.613Z,99591.00
2023-03-06T21:31:36.190Z,99547.22
2023-03-06T21:34:06.631Z,99600.97
2023-03-06T21:36:43.159Z,99576.97
2023-03-06T21:39:14.033Z,99593.19
2023-03-06T21:41:46.722Z,99584.19
2023-03-06T21:44:19.746Z,99565.47
2023-03-06T21:46:51.893Z,99562.72
2023-03-06T21:49:23.108Z,99574.44
2023-03-06T21:51:53.881Z,99583.22
2023-03-06T21:54:23.753Z,99576.88
2023-03-06T21:56:57.002Z,99574.41
2023-03-06T21:59:27.233Z,99568.84
2023-03-06T22:01:57.098Z,99563.53
2023-03-06T22:04:26.902Z,99572.72
2023-03-06T22:06:57.567Z,99543.50
2023-03-06T22:09:27.293Z,99551.09
2023-03-06T22:11:57.598Z,99572.06
2023-03-06T22:14:26.905Z,99566.03
2023-03-06T22:16:56.833Z,99525.25
2023-03-06T22:19:27.136Z,99568.09
2023-03-06T22:21:57.963Z,99577.16
2023-03-06T22:24:28.353Z,99518.16
2023-03-06T22:26:58.019Z,99582.38
2023-03-06T22:29:27.799Z,99586.13
2023-03-06T22:31:57.581Z,99561.38
2023-03-06T22:34:28.540Z,99561.94
2023-03-06T22:36:59.123Z,99527.28
2023-03-06T22:39:29.468Z,99534.00
2023-03-06T22:41:59.203Z,99570.72
2023-03-06T22:44:29.045Z,99566.72
2023-03-06T22:46:58.378Z,99544.66
2023-03-06T22:49:30.496Z,99551.06
2023-03-06T22:52:01.023Z,99559.47
2023-03-06T22:54:30.593Z,99553.75
2023-03-06T22:56:59.832Z,99554.38
2023-03-06T22:59:29.345Z,99542.31
2023-03-06T23:01:58.548Z,99532.97
2023-03-06T23:04:27.979Z,99547.03
2023-03-06T23:07:00.223Z,99535.84
2023-03-06T23:09:30.594Z,99541.84
2023-03-06T23:12:18.317Z,99546.47
2023-03-06T23:15:06.817Z,99548.16
2023-03-06T23:17:54.585Z,99549.38
2023-03-06T23:20:43.889Z,99529.81
2023-03-06T23:23:31.976Z,99537.34
2023-03-06T23:26:03.839Z,99536.09
2023-03-06T23:28:33.461Z,99466.25
2023-03-06T23:31:08.151Z,99526.66
2023-03-06T23:33:38.861Z,99460.97
2023-03-06T23:36:10.282Z,99478.41
2023-03-06T23:38:40.654Z,99484.34
2023-03-06T23:41:14.113Z,99511.53
2023-03-06T23:43:43.924Z,99481.66
2023-03-06T23:46:13.404Z,99455.56
2023-03-06T23:48:43.786Z,99488.13
2023-03-06T23:51:15.617Z,99501.34
2023-03-06T23:53:45.050Z,99499.09
2023-03-06T23:56:16.593Z,99500.78
2023-03-06T23:58:46.517Z,99478.72
